sensor_id;sensor_type;location;lat;lon;timestamp;temperature;humidity
66722;SHT31;53633;49.932;10.884;2022-07-06T00:00:52;19.46;53.39
66722;SHT31;53633;49.932;10.884;2022-07-06T00:03:20;19.24;53.99
66722;SHT31;53633;49.932;10.884;2022-07-06T00:06:01;19.09;54.86
66722;SHT31;53633;49.932;10.884;2022-07-06T00:08:28;19.06;54.60
66722;SHT31;53633;49.932;10.884;2022-07-06T00:10:56;18.85;55.34
66722;SHT31;53633;49.932;10.884;2022-07-06T00:13:25;18.78;55.86
66722;SHT31;53633;49.932;10.884;2022-07-06T00:15:55;18.79;56.11
66722;SHT31;53633;49.932;10.884;2022-07-06T00:18:22;19.16;55.47
66722;SHT31;53633;49.932;10.884;2022-07-06T00:20:52;19.49;54.38
66722;SHT31;53633;49.932;10.884;2022-07-06T00:23:20;19.50;54.33
66722;SHT31;53633;49.932;10.884;2022-07-06T00:25:47;19.64;53.71
66722;SHT31;53633;49.932;10.884;2022-07-06T00:28:15;19.75;53.19
66722;SHT31;53633;49.932;10.884;2022-07-06T00:30:43;19.58;53.27
66722;SHT31;53633;49.932;10.884;2022-07-06T00:33:12;19.60;53.90
66722;SHT31;53633;49.932;10.884;2022-07-06T00:35:45;19.61;54.05
66722;SHT31;53633;49.932;10.884;2022-07-06T00:38:13;19.66;53.39
66722;SHT31;53633;49.932;10.884;2022-07-06T00:40:44;19.70;53.56
66722;SHT31;53633;49.932;10.884;2022-07-06T00:43:13;19.81;52.67
66722;SHT31;53633;49.932;10.884;2022-07-06T00:45:42;19.57;53.22
66722;SHT31;53633;49.932;10.884;2022-07-06T00:48:16;19.40;53.79
66722;SHT31;53633;49.932;10.884;2022-07-06T00:50:44;19.63;54.08
66722;SHT31;53633;49.932;10.884;2022-07-06T00:53:12;19.56;54.14
66722;SHT31;53633;49.932;10.884;2022-07-06T00:55:46;19.39;54.97
66722;SHT31;53633;49.932;10.884;2022-07-06T00:58:16;19.26;55.61
66722;SHT31;53633;49.932;10.884;2022-07-06T01:00:44;19.09;55.90
66722;SHT31;53633;49.932;10.884;2022-07-06T01:03:13;19.26;55.77
66722;SHT31;53633;49.932;10.884;2022-07-06T01:05:41;19.45;55.53
66722;SHT31;53633;49.932;10.884;2022-07-06T01:08:09;19.68;53.36
66722;SHT31;53633;49.932;10.884;2022-07-06T01:10:37;19.66;53.42
66722;SHT31;53633;49.932;10.884;2022-07-06T01:13:06;19.58;53.66
66722;SHT31;53633;49.932;10.884;2022-07-06T01:15:42;19.06;54.10
66722;SHT31;53633;49.932;10.884;2022-07-06T01:18:10;19.18;55.43
66722;SHT31;53633;49.932;10.884;2022-07-06T01:20:42;19.26;55.02
66722;SHT31;53633;49.932;10.884;2022-07-06T01:23:10;19.18;54.63
66722;SHT31;53633;49.932;10.884;2022-07-06T01:25:38;19.18;54.71
66722;SHT31;53633;49.932;10.884;2022-07-06T01:28:06;18.74;55.63
66722;SHT31;53633;49.932;10.884;2022-07-06T01:30:34;18.69;56.22
66722;SHT31;53633;49.932;10.884;2022-07-06T01:33:06;18.65;56.51
66722;SHT31;53633;49.932;10.884;2022-07-06T01:35:38;18.47;57.04
66722;SHT31;53633;49.932;10.884;2022-07-06T01:38:10;18.06;58.44
66722;SHT31;53633;49.932;10.884;2022-07-06T01:40:42;17.83;59.34
66722;SHT31;53633;49.932;10.884;2022-07-06T01:43:20;18.10;59.17
66722;SHT31;53633;49.932;10.884;2022-07-06T01:45:49;17.95;59.26
66722;SHT31;53633;49.932;10.884;2022-07-06T01:48:18;17.90;60.31
66722;SHT31;53633;49.932;10.884;2022-07-06T01:50:49;18.09;60.14
66722;SHT31;53633;49.932;10.884;2022-07-06T01:53:22;18.38;58.89
66722;SHT31;53633;49.932;10.884;2022-07-06T01:55:58;18.71;57.15
66722;SHT31;53633;49.932;10.884;2022-07-06T01:58:26;18.89;56.73
66722;SHT31;53633;49.932;10.884;2022-07-06T02:00:58;18.72;56.54
66722;SHT31;53633;49.932;10.884;2022-07-06T02:03:26;18.60;57.29
66722;SHT31;53633;49.932;10.884;2022-07-06T02:05:54;18.48;57.78
66722;SHT31;53633;49.932;10.884;2022-07-06T02:08:27;18.34;57.62
66722;SHT31;53633;49.932;10.884;2022-07-06T02:10:55;18.12;58.60
66722;SHT31;53633;49.932;10.884;2022-07-06T02:13:23;17.90;58.65
66722;SHT31;53633;49.932;10.884;2022-07-06T02:15:51;17.71;59.12
66722;SHT31;53633;49.932;10.884;2022-07-06T02:18:20;17.51;59.76
66722;SHT31;53633;49.932;10.884;2022-07-06T02:20:49;17.35;60.24
66722;SHT31;53633;49.932;10.884;2022-07-06T02:23:17;17.12;60.91
66722;SHT31;53633;49.932;10.884;2022-07-06T02:25:52;17.20;62.20
66722;SHT31;53633;49.932;10.884;2022-07-06T02:28:20;17.71;60.00
66722;SHT31;53633;49.932;10.884;2022-07-06T02:30:50;17.37;60.80
66722;SHT31;53633;49.932;10.884;2022-07-06T02:33:18;17.47;61.23
66722;SHT31;53633;49.932;10.884;2022-07-06T02:35:47;17.33;61.32
66722;SHT31;53633;49.932;10.884;2022-07-06T02:38:15;17.30;61.81
66722;SHT31;53633;49.932;10.884;2022-07-06T02:40:49;17.45;61.19
66722;SHT31;53633;49.932;10.884;2022-07-06T02:43:18;17.37;61.81
66722;SHT31;53633;49.932;10.884;2022-07-06T02:45:46;17.34;61.48
66722;SHT31;53633;49.932;10.884;2022-07-06T02:48:14;16.97;61.93
66722;SHT31;53633;49.932;10.884;2022-07-06T02:50:45;16.69;62.71
66722;SHT31;53633;49.932;10.884;2022-07-06T02:53:12;16.40;63.88
66722;SHT31;53633;49.932;10.884;2022-07-06T02:55:41;16.18;64.78
66722;SHT31;53633;49.932;10.884;2022-07-06T02:58:11;16.09;65.37
66722;SHT31;53633;49.932;10.884;2022-07-06T03:00:42;16.06;65.69
66722;SHT31;53633;49.932;10.884;2022-07-06T03:03:09;16.01;65.51
66722;SHT31;53633;49.932;10.884;2022-07-06T03:05:38;16.07;66.09
66722;SHT31;53633;49.932;10.884;2022-07-06T03:08:08;15.97;65.80
66722;SHT31;53633;49.932;10.884;2022-07-06T03:10:35;15.82;66.39
66722;SHT31;53633;49.932;10.884;2022-07-06T03:13:03;15.75;66.80
66722;SHT31;53633;49.932;10.884;2022-07-06T03:15:31;15.63;67.07
66722;SHT31;53633;49.932;10.884;2022-07-06T03:18:07;15.58;67.26
66722;SHT31;53633;49.932;10.884;2022-07-06T03:20:34;15.93;67.59
66722;SHT31;53633;49.932;10.884;2022-07-06T03:23:07;16.10;66.47
66722;SHT31;53633;49.932;10.884;2022-07-06T03:25:38;15.85;66.81
66722;SHT31;53633;49.932;10.884;2022-07-06T03:28:05;15.63;67.23
66722;SHT31;53633;49.932;10.884;2022-07-06T03:30:34;15.75;68.04
66722;SHT31;53633;49.932;10.884;2022-07-06T03:33:10;15.97;67.17
66722;SHT31;53633;49.932;10.884;2022-07-06T03:35:37;15.94;67.58
66722;SHT31;53633;49.932;10.884;2022-07-06T03:38:06;16.03;67.29
66722;SHT31;53633;49.932;10.884;2022-07-06T03:40:41;15.94;67.10
66722;SHT31;53633;49.932;10.884;2022-07-06T03:43:09;15.89;67.20
66722;SHT31;53633;49.932;10.884;2022-07-06T03:45:41;16.09;67.13
66722;SHT31;53633;49.932;10.884;2022-07-06T03:48:12;16.11;67.09
66722;SHT31;53633;49.932;10.884;2022-07-06T03:50:40;15.85;67.47
66722;SHT31;53633;49.932;10.884;2022-07-06T03:53:12;15.75;67.86
66722;SHT31;53633;49.932;10.884;2022-07-06T03:55:40;15.81;67.38
66722;SHT31;53633;49.932;10.884;2022-07-06T03:58:08;15.93;67.03
66722;SHT31;53633;49.932;10.884;2022-07-06T04:00:41;15.81;67.77
66722;SHT31;53633;49.932;10.884;2022-07-06T04:03:12;15.72;67.72
66722;SHT31;53633;49.932;10.884;2022-07-06T04:05:39;15.78;67.91
66722;SHT31;53633;49.932;10.884;2022-07-06T04:08:10;16.30;67.12
66722;SHT31;53633;49.932;10.884;2022-07-06T04:10:43;16.41;66.93
66722;SHT31;53633;49.932;10.884;2022-07-06T04:13:11;16.75;66.37
66722;SHT31;53633;49.932;10.884;2022-07-06T04:15:38;16.86;66.58
66722;SHT31;53633;49.932;10.884;2022-07-06T04:18:06;17.82;63.69
66722;SHT31;53633;49.932;10.884;2022-07-06T04:20:38;18.94;59.77
66722;SHT31;53633;49.932;10.884;2022-07-06T04:23:08;19.87;56.80
66722;SHT31;53633;49.932;10.884;2022-07-06T04:25:36;19.74;57.15
66722;SHT31;53633;49.932;10.884;2022-07-06T04:28:08;19.46;57.92
66722;SHT31;53633;49.932;10.884;2022-07-06T04:30:40;20.18;56.13
66722;SHT31;53633;49.932;10.884;2022-07-06T04:33:12;20.84;54.45
66722;SHT31;53633;49.932;10.884;2022-07-06T04:35:52;21.67;51.85
66722;SHT31;53633;49.932;10.884;2022-07-06T04:38:46;22.34;49.88
66722;SHT31;53633;49.932;10.884;2022-07-06T04:41:17;22.57;48.80
66722;SHT31;53633;49.932;10.884;2022-07-06T04:43:45;22.84;48.16
66722;SHT31;53633;49.932;10.884;2022-07-06T04:46:14;23.13;47.16
66722;SHT31;53633;49.932;10.884;2022-07-06T04:48:42;22.48;48.01
66722;SHT31;53633;49.932;10.884;2022-07-06T04:51:13;22.48;48.33
66722;SHT31;53633;49.932;10.884;2022-07-06T04:53:45;22.77;47.43
66722;SHT31;53633;49.932;10.884;2022-07-06T04:56:13;22.72;47.10
66722;SHT31;53633;49.932;10.884;2022-07-06T04:58:46;22.57;48.40
66722;SHT31;53633;49.932;10.884;2022-07-06T05:01:13;22.70;47.13
66722;SHT31;53633;49.932;10.884;2022-07-06T05:03:41;22.86;47.44
66722;SHT31;53633;49.932;10.884;2022-07-06T05:06:17;22.76;47.48
66722;SHT31;53633;49.932;10.884;2022-07-06T05:08:45;22.97;46.91
66722;SHT31;53633;49.932;10.884;2022-07-06T05:11:13;22.67;47.79
66722;SHT31;53633;49.932;10.884;2022-07-06T05:13:51;22.37;48.10
66722;SHT31;53633;49.932;10.884;2022-07-06T05:16:26;21.94;48.54
66722;SHT31;53633;49.932;10.884;2022-07-06T05:18:54;21.49;48.97
66722;SHT31;53633;49.932;10.884;2022-07-06T05:21:24;21.08;50.08
66722;SHT31;53633;49.932;10.884;2022-07-06T05:23:58;21.02;50.63
66722;SHT31;53633;49.932;10.884;2022-07-06T05:26:30;20.73;50.69
66722;SHT31;53633;49.932;10.884;2022-07-06T05:28:58;20.81;51.15
66722;SHT31;53633;49.932;10.884;2022-07-06T05:31:30;20.81;50.74
66722;SHT31;53633;49.932;10.884;2022-07-06T05:34:00;20.74;51.66
66722;SHT31;53633;49.932;10.884;2022-07-06T05:36:29;20.64;51.58
66722;SHT31;53633;49.932;10.884;2022-07-06T05:38:57;20.63;51.44
66722;SHT31;53633;49.932;10.884;2022-07-06T05:41:24;20.53;52.01
66722;SHT31;53633;49.932;10.884;2022-07-06T05:44:01;20.47;51.93
66722;SHT31;53633;49.932;10.884;2022-07-06T05:46:35;20.56;51.95
66722;SHT31;53633;49.932;10.884;2022-07-06T05:49:03;20.81;51.52
66722;SHT31;53633;49.932;10.884;2022-07-06T05:51:33;21.12;50.33
66722;SHT31;53633;49.932;10.884;2022-07-06T05:54:05;21.22;49.45
66722;SHT31;53633;49.932;10.884;2022-07-06T05:56:34;21.32;49.68
66722;SHT31;53633;49.932;10.884;2022-07-06T05:59:01;21.74;48.44
66722;SHT31;53633;49.932;10.884;2022-07-06T06:01:31;21.59;48.99
66722;SHT31;53633;49.932;10.884;2022-07-06T06:04:01;21.72;49.13
66722;SHT31;53633;49.932;10.884;2022-07-06T06:06:29;21.76;48.32
66722;SHT31;53633;49.932;10.884;2022-07-06T06:09:00;21.64;48.49
66722;SHT31;53633;49.932;10.884;2022-07-06T06:11:29;21.56;49.49
66722;SHT31;53633;49.932;10.884;2022-07-06T06:13:58;21.38;49.47
66722;SHT31;53633;49.932;10.884;2022-07-06T06:16:27;21.32;49.61
66722;SHT31;53633;49.932;10.884;2022-07-06T06:19:15;21.49;48.96
66722;SHT31;53633;49.932;10.884;2022-07-06T06:21:48;21.46;49.00
66722;SHT31;53633;49.932;10.884;2022-07-06T06:24:23;21.54;48.68
66722;SHT31;53633;49.932;10.884;2022-07-06T06:26:52;21.69;48.92
66722;SHT31;53633;49.932;10.884;2022-07-06T06:29:24;21.80;48.36
66722;SHT31;53633;49.932;10.884;2022-07-06T06:31:56;21.97;48.71
66722;SHT31;53633;49.932;10.884;2022-07-06T06:34:26;22.01;46.91
66722;SHT31;53633;49.932;10.884;2022-07-06T06:36:58;23.14;45.50
66722;SHT31;53633;49.932;10.884;2022-07-06T06:39:35;25.23;42.43
66722;SHT31;53633;49.932;10.884;2022-07-06T06:42:04;25.51;40.74
66722;SHT31;53633;49.932;10.884;2022-07-06T06:44:36;25.20;40.62
66722;SHT31;53633;49.932;10.884;2022-07-06T06:47:04;25.03;41.43
66722;SHT31;53633;49.932;10.884;2022-07-06T06:49:33;24.35;42.63
66722;SHT31;53633;49.932;10.884;2022-07-06T06:52:02;24.07;43.12
66722;SHT31;53633;49.932;10.884;2022-07-06T06:54:52;24.17;43.57
66722;SHT31;53633;49.932;10.884;2022-07-06T06:57:20;23.72;43.85
66722;SHT31;53633;49.932;10.884;2022-07-06T06:59:47;24.30;43.13
66722;SHT31;53633;49.932;10.884;2022-07-06T07:02:16;25.28;41.14
66722;SHT31;53633;49.932;10.884;2022-07-06T07:04:47;24.93;41.92
66722;SHT31;53633;49.932;10.884;2022-07-06T07:07:15;24.99;41.10
66722;SHT31;53633;49.932;10.884;2022-07-06T07:09:44;24.55;42.85
66722;SHT31;53633;49.932;10.884;2022-07-06T07:12:15;26.13;39.56
66722;SHT31;53633;49.932;10.884;2022-07-06T07:14:45;26.11;39.69
66722;SHT31;53633;49.932;10.884;2022-07-06T07:17:17;26.12;38.74
66722;SHT31;53633;49.932;10.884;2022-07-06T07:19:50;26.90;37.47
66722;SHT31;53633;49.932;10.884;2022-07-06T07:22:18;26.54;37.26
66722;SHT31;53633;49.932;10.884;2022-07-06T07:24:53;27.32;36.63
66722;SHT31;53633;49.932;10.884;2022-07-06T07:27:28;27.59;36.06
66722;SHT31;53633;49.932;10.884;2022-07-06T07:30:04;27.61;35.99
66722;SHT31;53633;49.932;10.884;2022-07-06T07:32:39;28.24;34.79
66722;SHT31;53633;49.932;10.884;2022-07-06T07:35:07;27.93;35.06
66722;SHT31;53633;49.932;10.884;2022-07-06T07:37:36;27.93;35.99
66722;SHT31;53633;49.932;10.884;2022-07-06T07:40:05;27.42;36.36
66722;SHT31;53633;49.932;10.884;2022-07-06T07:42:39;26.96;36.50
66722;SHT31;53633;49.932;10.884;2022-07-06T07:45:08;26.49;37.11
66722;SHT31;53633;49.932;10.884;2022-07-06T07:47:36;26.20;37.35
66722;SHT31;53633;49.932;10.884;2022-07-06T07:50:04;25.84;38.79
66722;SHT31;53633;49.932;10.884;2022-07-06T07:52:32;25.38;39.00
66722;SHT31;53633;49.932;10.884;2022-07-06T07:55:03;25.95;38.58
66722;SHT31;53633;49.932;10.884;2022-07-06T07:57:58;26.67;38.59
66722;SHT31;53633;49.932;10.884;2022-07-06T08:00:27;26.70;37.91
66722;SHT31;53633;49.932;10.884;2022-07-06T08:02:57;27.28;36.70
66722;SHT31;53633;49.932;10.884;2022-07-06T08:05:25;27.46;37.35
66722;SHT31;53633;49.932;10.884;2022-07-06T08:07:53;27.15;37.26
66722;SHT31;53633;49.932;10.884;2022-07-06T08:10:25;26.51;38.13
66722;SHT31;53633;49.932;10.884;2022-07-06T08:12:52;26.50;37.28
66722;SHT31;53633;49.932;10.884;2022-07-06T08:15:24;26.43;37.99
66722;SHT31;53633;49.932;10.884;2022-07-06T08:17:51;26.32;37.65
66722;SHT31;53633;49.932;10.884;2022-07-06T08:20:22;26.71;38.25
66722;SHT31;53633;49.932;10.884;2022-07-06T08:22:49;27.26;37.36
66722;SHT31;53633;49.932;10.884;2022-07-06T08:25:24;27.40;37.08
66722;SHT31;53633;49.932;10.884;2022-07-06T08:27:52;27.77;35.24
66722;SHT31;53633;49.932;10.884;2022-07-06T08:30:23;28.05;35.12
66722;SHT31;53633;49.932;10.884;2022-07-06T08:32:51;28.43;35.12
66722;SHT31;53633;49.932;10.884;2022-07-06T08:35:38;27.73;35.29
66722;SHT31;53633;49.932;10.884;2022-07-06T08:38:09;27.52;35.64
66722;SHT31;53633;49.932;10.884;2022-07-06T08:40:39;27.50;36.28
66722;SHT31;53633;49.932;10.884;2022-07-06T08:43:06;27.32;35.91
66722;SHT31;53633;49.932;10.884;2022-07-06T08:45:35;27.66;35.41
66722;SHT31;53633;49.932;10.884;2022-07-06T08:48:04;28.57;32.81
66722;SHT31;53633;49.932;10.884;2022-07-06T08:50:34;29.10;33.11
66722;SHT31;53633;49.932;10.884;2022-07-06T08:53:03;29.66;33.77
66722;SHT31;53633;49.932;10.884;2022-07-06T08:55:30;30.20;32.21
66722;SHT31;53633;49.932;10.884;2022-07-06T08:58:00;30.32;31.37
66722;SHT31;53633;49.932;10.884;2022-07-06T09:00:29;30.23;30.82
66722;SHT31;53633;49.932;10.884;2022-07-06T09:03:05;30.64;30.38
66722;SHT31;53633;49.932;10.884;2022-07-06T09:05:40;30.25;32.18
66722;SHT31;53633;49.932;10.884;2022-07-06T09:08:09;30.16;30.77
66722;SHT31;53633;49.932;10.884;2022-07-06T09:10:35;29.49;32.13
66722;SHT31;53633;49.932;10.884;2022-07-06T09:13:07;28.56;33.94
66722;SHT31;53633;49.932;10.884;2022-07-06T09:15:36;27.71;34.11
66722;SHT31;53633;49.932;10.884;2022-07-06T09:18:06;27.60;34.77
66722;SHT31;53633;49.932;10.884;2022-07-06T09:20:41;27.49;35.59
66722;SHT31;53633;49.932;10.884;2022-07-06T09:23:09;27.39;35.88
66722;SHT31;53633;49.932;10.884;2022-07-06T09:25:47;27.60;35.37
66722;SHT31;53633;49.932;10.884;2022-07-06T09:28:18;28.70;34.91
66722;SHT31;53633;49.932;10.884;2022-07-06T09:30:45;28.39;35.55
66722;SHT31;53633;49.932;10.884;2022-07-06T09:33:18;28.15;34.84
66722;SHT31;53633;49.932;10.884;2022-07-06T09:35:47;27.77;35.40
66722;SHT31;53633;49.932;10.884;2022-07-06T09:38:15;27.16;36.33
66722;SHT31;53633;49.932;10.884;2022-07-06T09:40:47;27.35;35.80
66722;SHT31;53633;49.932;10.884;2022-07-06T09:43:16;28.29;34.53
66722;SHT31;53633;49.932;10.884;2022-07-06T09:45:56;29.49;31.97
66722;SHT31;53633;49.932;10.884;2022-07-06T09:48:27;30.42;31.87
66722;SHT31;53633;49.932;10.884;2022-07-06T09:50:57;31.03;30.55
66722;SHT31;53633;49.932;10.884;2022-07-06T09:53:26;29.39;32.29
66722;SHT31;53633;49.932;10.884;2022-07-06T09:56:00;29.41;32.34
66722;SHT31;53633;49.932;10.884;2022-07-06T09:58:30;28.97;33.77
66722;SHT31;53633;49.932;10.884;2022-07-06T10:01:25;28.56;33.43
66722;SHT31;53633;49.932;10.884;2022-07-06T10:04:00;28.84;34.86
66722;SHT31;53633;49.932;10.884;2022-07-06T10:06:39;29.47;33.48
66722;SHT31;53633;49.932;10.884;2022-07-06T10:09:08;29.04;34.57
66722;SHT31;53633;49.932;10.884;2022-07-06T10:11:43;28.74;33.72
66722;SHT31;53633;49.932;10.884;2022-07-06T10:14:17;27.93;36.05
66722;SHT31;53633;49.932;10.884;2022-07-06T10:16:50;27.08;37.07
66722;SHT31;53633;49.932;10.884;2022-07-06T10:19:21;26.73;37.21
66722;SHT31;53633;49.932;10.884;2022-07-06T10:21:52;25.81;37.23
66722;SHT31;53633;49.932;10.884;2022-07-06T10:24:21;25.91;39.58
66722;SHT31;53633;49.932;10.884;2022-07-06T10:26:59;26.20;37.89
66722;SHT31;53633;49.932;10.884;2022-07-06T10:29:30;26.37;37.09
66722;SHT31;53633;49.932;10.884;2022-07-06T10:31:59;26.32;35.89
66722;SHT31;53633;49.932;10.884;2022-07-06T10:34:29;26.23;36.31
66722;SHT31;53633;49.932;10.884;2022-07-06T10:36:58;26.28;35.46
66722;SHT31;53633;49.932;10.884;2022-07-06T10:39:37;26.36;32.78
66722;SHT31;53633;49.932;10.884;2022-07-06T10:42:06;26.67;33.98
66722;SHT31;53633;49.932;10.884;2022-07-06T10:44:44;26.81;32.69
66722;SHT31;53633;49.932;10.884;2022-07-06T10:47:12;27.40;31.18
66722;SHT31;53633;49.932;10.884;2022-07-06T10:49:48;27.39;31.18
66722;SHT31;53633;49.932;10.884;2022-07-06T10:52:53;27.04;33.05
66722;SHT31;53633;49.932;10.884;2022-07-06T10:55:31;26.83;33.91
66722;SHT31;53633;49.932;10.884;2022-07-06T10:58:02;26.95;35.25
66722;SHT31;53633;49.932;10.884;2022-07-06T11:00:56;26.92;33.07
66722;SHT31;53633;49.932;10.884;2022-07-06T11:03:34;27.01;33.52
66722;SHT31;53633;49.932;10.884;2022-07-06T11:06:06;26.78;34.25
66722;SHT31;53633;49.932;10.884;2022-07-06T11:08:47;26.65;33.00
66722;SHT31;53633;49.932;10.884;2022-07-06T11:11:17;26.44;34.52
66722;SHT31;53633;49.932;10.884;2022-07-06T11:14:14;26.49;34.27
66722;SHT31;53633;49.932;10.884;2022-07-06T11:17:00;26.63;34.38
66722;SHT31;53633;49.932;10.884;2022-07-06T11:19:29;26.73;34.15
66722;SHT31;53633;49.932;10.884;2022-07-06T11:22:05;26.39;35.24
66722;SHT31;53633;49.932;10.884;2022-07-06T11:24:42;26.13;35.28
66722;SHT31;53633;49.932;10.884;2022-07-06T11:27:10;25.91;35.68
66722;SHT31;53633;49.932;10.884;2022-07-06T11:29:46;25.50;35.99
66722;SHT31;53633;49.932;10.884;2022-07-06T11:32:15;25.70;36.64
66722;SHT31;53633;49.932;10.884;2022-07-06T11:34:50;26.01;34.94
66722;SHT31;53633;49.932;10.884;2022-07-06T11:37:24;26.18;34.65
66722;SHT31;53633;49.932;10.884;2022-07-06T11:39:54;26.37;35.02
66722;SHT31;53633;49.932;10.884;2022-07-06T11:42:22;26.71;33.77
66722;SHT31;53633;49.932;10.884;2022-07-06T11:45:06;27.19;31.82
66722;SHT31;53633;49.932;10.884;2022-07-06T11:47:41;27.54;30.98
66722;SHT31;53633;49.932;10.884;2022-07-06T11:50:10;27.60;30.82
66722;SHT31;53633;49.932;10.884;2022-07-06T11:52:48;27.53;30.54
66722;SHT31;53633;49.932;10.884;2022-07-06T11:55:17;27.59;30.62
66722;SHT31;53633;49.932;10.884;2022-07-06T11:57:49;27.49;30.00
66722;SHT31;53633;49.932;10.884;2022-07-06T12:00:20;27.42;30.58
66722;SHT31;53633;49.932;10.884;2022-07-06T12:02:59;27.29;32.36
66722;SHT31;53633;49.932;10.884;2022-07-06T12:05:29;27.21;32.90
66722;SHT31;53633;49.932;10.884;2022-07-06T12:08:06;27.14;32.24
66722;SHT31;53633;49.932;10.884;2022-07-06T12:10:34;27.06;33.22
66722;SHT31;53633;49.932;10.884;2022-07-06T12:13:04;26.96;32.61
66722;SHT31;53633;49.932;10.884;2022-07-06T12:15:37;26.90;31.53
66722;SHT31;53633;49.932;10.884;2022-07-06T12:18:05;26.92;32.25
66722;SHT31;53633;49.932;10.884;2022-07-06T12:20:38;26.88;31.77
66722;SHT31;53633;49.932;10.884;2022-07-06T12:23:15;27.05;31.21
66722;SHT31;53633;49.932;10.884;2022-07-06T12:25:42;26.88;32.86
66722;SHT31;53633;49.932;10.884;2022-07-06T12:28:24;26.87;33.20
66722;SHT31;53633;49.932;10.884;2022-07-06T12:30:57;26.91;31.59
66722;SHT31;53633;49.932;10.884;2022-07-06T12:33:32;26.91;30.27
66722;SHT31;53633;49.932;10.884;2022-07-06T12:36:11;26.80;30.79
66722;SHT31;53633;49.932;10.884;2022-07-06T12:38:48;27.05;31.18
66722;SHT31;53633;49.932;10.884;2022-07-06T12:41:33;26.84;30.34
66722;SHT31;53633;49.932;10.884;2022-07-06T12:44:25;26.87;30.19
66722;SHT31;53633;49.932;10.884;2022-07-06T12:47:03;26.81;29.88
66722;SHT31;53633;49.932;10.884;2022-07-06T12:49:34;26.90;29.98
66722;SHT31;53633;49.932;10.884;2022-07-06T12:52:11;26.80;30.29
66722;SHT31;53633;49.932;10.884;2022-07-06T12:54:43;26.61;30.90
66722;SHT31;53633;49.932;10.884;2022-07-06T12:57:12;26.41;29.68
66722;SHT31;53633;49.932;10.884;2022-07-06T12:59:42;26.37;29.72
66722;SHT31;53633;49.932;10.884;2022-07-06T13:02:21;26.43;29.77
66722;SHT31;53633;49.932;10.884;2022-07-06T13:05:16;26.49;30.39
66722;SHT31;53633;49.932;10.884;2022-07-06T13:07:46;26.40;30.62
66722;SHT31;53633;49.932;10.884;2022-07-06T13:10:25;26.30;31.05
66722;SHT31;53633;49.932;10.884;2022-07-06T13:12:53;26.20;30.20
66722;SHT31;53633;49.932;10.884;2022-07-06T13:15:21;26.18;30.57
66722;SHT31;53633;49.932;10.884;2022-07-06T13:17:54;26.08;29.55
66722;SHT31;53633;49.932;10.884;2022-07-06T13:20:36;25.95;30.34
66722;SHT31;53633;49.932;10.884;2022-07-06T13:23:08;25.77;31.34
66722;SHT31;53633;49.932;10.884;2022-07-06T13:25:48;25.71;31.42
66722;SHT31;53633;49.932;10.884;2022-07-06T13:28:16;25.85;30.42
66722;SHT31;53633;49.932;10.884;2022-07-06T13:30:55;25.80;30.11
66722;SHT31;53633;49.932;10.884;2022-07-06T13:33:22;25.75;30.34
66722;SHT31;53633;49.932;10.884;2022-07-06T13:35:54;25.60;30.53
66722;SHT31;53633;49.932;10.884;2022-07-06T13:38:21;25.67;31.10
66722;SHT31;53633;49.932;10.884;2022-07-06T13:40:53;25.71;29.45
66722;SHT31;53633;49.932;10.884;2022-07-06T13:43:21;25.53;30.52
66722;SHT31;53633;49.932;10.884;2022-07-06T13:45:55;25.41;28.91
66722;SHT31;53633;49.932;10.884;2022-07-06T13:48:35;25.37;29.89
66722;SHT31;53633;49.932;10.884;2022-07-06T13:51:06;25.33;29.93
66722;SHT31;53633;49.932;10.884;2022-07-06T13:53:37;25.46;28.46
66722;SHT31;53633;49.932;10.884;2022-07-06T13:56:06;25.53;29.23
66722;SHT31;53633;49.932;10.884;2022-07-06T13:58:37;25.50;28.19
66722;SHT31;53633;49.932;10.884;2022-07-06T14:01:04;25.43;29.05
66722;SHT31;53633;49.932;10.884;2022-07-06T14:03:35;25.33;29.61
66722;SHT31;53633;49.932;10.884;2022-07-06T14:06:07;25.26;28.20
66722;SHT31;53633;49.932;10.884;2022-07-06T14:08:35;25.20;27.60
66722;SHT31;53633;49.932;10.884;2022-07-06T14:11:03;25.17;28.72
66722;SHT31;53633;49.932;10.884;2022-07-06T14:13:33;25.23;29.82
66722;SHT31;53633;49.932;10.884;2022-07-06T14:16:02;25.26;30.74
66722;SHT31;53633;49.932;10.884;2022-07-06T14:18:34;25.16;31.15
66722;SHT31;53633;49.932;10.884;2022-07-06T14:21:07;25.09;29.75
66722;SHT31;53633;49.932;10.884;2022-07-06T14:23:41;25.19;29.55
66722;SHT31;53633;49.932;10.884;2022-07-06T14:26:09;25.24;30.02
66722;SHT31;53633;49.932;10.884;2022-07-06T14:28:41;25.24;30.11
66722;SHT31;53633;49.932;10.884;2022-07-06T14:31:17;25.26;29.90
66722;SHT31;53633;49.932;10.884;2022-07-06T14:33:51;25.19;29.97
66722;SHT31;53633;49.932;10.884;2022-07-06T14:36:24;25.02;29.82
66722;SHT31;53633;49.932;10.884;2022-07-06T14:38:51;25.15;30.74
66722;SHT31;53633;49.932;10.884;2022-07-06T14:41:22;25.22;29.93
66722;SHT31;53633;49.932;10.884;2022-07-06T14:43:57;25.37;29.87
66722;SHT31;53633;49.932;10.884;2022-07-06T14:46:26;25.31;29.41
66722;SHT31;53633;49.932;10.884;2022-07-06T14:48:54;25.33;30.05
66722;SHT31;53633;49.932;10.884;2022-07-06T14:51:25;25.27;30.26
66722;SHT31;53633;49.932;10.884;2022-07-06T14:53:52;25.15;30.14
66722;SHT31;53633;49.932;10.884;2022-07-06T14:56:21;25.13;30.74
66722;SHT31;53633;49.932;10.884;2022-07-06T14:58:49;25.09;30.29
66722;SHT31;53633;49.932;10.884;2022-07-06T15:01:42;25.26;29.80
66722;SHT31;53633;49.932;10.884;2022-07-06T15:04:10;25.31;29.46
66722;SHT31;53633;49.932;10.884;2022-07-06T15:06:43;25.34;29.07
66722;SHT31;53633;49.932;10.884;2022-07-06T15:09:22;25.34;29.07
66722;SHT31;53633;49.932;10.884;2022-07-06T15:11:51;25.36;29.23
66722;SHT31;53633;49.932;10.884;2022-07-06T15:14:19;25.26;29.64
66722;SHT31;53633;49.932;10.884;2022-07-06T15:16:58;25.22;30.11
66722;SHT31;53633;49.932;10.884;2022-07-06T15:19:28;25.23;29.82
66722;SHT31;53633;49.932;10.884;2022-07-06T15:21:56;25.23;29.99
66722;SHT31;53633;49.932;10.884;2022-07-06T15:24:28;25.23;30.11
66722;SHT31;53633;49.932;10.884;2022-07-06T15:26:58;25.26;30.75
66722;SHT31;53633;49.932;10.884;2022-07-06T15:29:33;25.26;30.48
66722;SHT31;53633;49.932;10.884;2022-07-06T15:32:07;25.28;30.72
66722;SHT31;53633;49.932;10.884;2022-07-06T15:34:35;25.28;29.84
66722;SHT31;53633;49.932;10.884;2022-07-06T15:37:07;25.27;30.23
66722;SHT31;53633;49.932;10.884;2022-07-06T15:39:35;25.28;29.96
66722;SHT31;53633;49.932;10.884;2022-07-06T15:42:10;25.30;29.81